Time;durP1;ratioP1;P1;durP2;ratioP2;P2;SDS_P1;SDS_P2;PMS_P1;PMS_P2;Temp;Humidity;BMP_temperature;BMP_pressure;BME280_temperature;BME280_humidity;BME280_pressure;Samples;Min_cycle;Max_cycle;Signal;HPM_P1;HPM_P2
2021/12/20 00:01:10;;;;;;;13.27;3.30;;;29.50;90.70;;;;;;5131342;27;20372;-87
2021/12/20 00:03:37;;;;;;;14.32;3.38;;;29.80;86.60;;;;;;5131063;27;20377;-87
2021/12/20 00:06:05;;;;;;;12.18;3.38;;;29.50;88.50;;;;;;5131213;27;20449;-86
2021/12/20 00:08:32;;;;;;;11.10;3.00;;;29.50;89.30;;;;;;5131100;27;20452;-88
2021/12/20 00:10:58;;;;;;;11.23;3.15;;;29.70;88.50;;;;;;5130902;27;20369;-89
2021/12/20 00:13:25;;;;;;;15.55;3.50;;;30.00;87.60;;;;;;5130879;27;20459;-89
2021/12/20 00:15:52;;;;;;;13.65;3.40;;;30.30;85.90;;;;;;5112182;27;20802;-85
2021/12/20 00:18:19;;;;;;;15.15;3.40;;;30.50;82.00;;;;;;5130701;27;20463;-85
2021/12/20 00:20:46;;;;;;;11.25;2.83;;;30.20;80.50;;;;;;5131025;27;20373;-84
2021/12/20 00:23:13;;;;;;;10.73;2.95;;;29.60;85.20;;;;;;5130828;27;20373;-85
2021/12/20 00:25:42;;;;;;;11.67;3.17;;;29.60;85.80;;;;;;5130825;27;20432;-85
2021/12/20 00:28:09;;;;;;;13.38;3.25;;;30.10;84.00;;;;;;5130775;27;20421;-85
2021/12/20 00:30:36;;;;;;;11.82;3.05;;;30.30;81.40;;;;;;5130469;27;20866;-87
2021/12/20 00:33:02;;;;;;;12.90;2.90;;;30.00;83.30;;;;;;5130506;27;20449;-87
2021/12/20 00:35:29;;;;;;;12.95;2.90;;;30.00;84.00;;;;;;5130214;27;20404;-88
2021/12/20 00:40:42;;;;;;;10.90;2.92;;;29.90;86.20;;;;;;5130311;27;20452;-86
2021/12/20 00:43:09;;;;;;;12.48;3.47;;;30.50;81.00;;;;;;5130057;27;20525;-87
2021/12/20 00:45:37;;;;;;;11.25;3.00;;;30.70;77.40;;;;;;5130244;27;20373;-87
2021/12/20 00:48:05;;;;;;;10.07;3.13;;;30.60;81.40;;;;;;5130156;27;20447;-87
2021/12/20 00:50:33;;;;;;;12.35;3.47;;;30.50;82.10;;;;;;5130100;27;20394;-88
2021/12/20 00:53:00;;;;;;;14.60;3.35;;;30.70;80.10;;;;;;5130077;27;20420;-87
2021/12/20 00:55:29;;;;;;;10.55;3.08;;;30.90;81.70;;;;;;5130037;27;20384;-85
2021/12/20 00:57:58;;;;;;;14.18;3.47;;;31.00;79.00;;;;;;5130477;27;20373;-86
2021/12/20 01:00:46;;;;;;;10.55;2.95;;;30.70;78.30;;;;;;5129951;27;20373;-87
2021/12/20 01:03:14;;;;;;;12.48;3.28;;;30.50;81.10;;;;;;5129640;27;20853;-87
2021/12/20 01:05:42;;;;;;;9.80;3.13;;;30.70;78.80;;;;;;5128945;27;20756;-86
2021/12/20 01:08:09;;;;;;;13.32;3.25;;;30.80;78.90;;;;;;5129833;27;20744;-86
2021/12/20 01:10:39;;;;;;;13.18;3.25;;;31.00;78.00;;;;;;5129621;27;20726;-85
2021/12/20 01:13:07;;;;;;;14.02;3.65;;;31.30;75.60;;;;;;5129672;27;20393;-86
2021/12/20 01:15:37;;;;;;;11.30;2.90;;;30.90;78.90;;;;;;5131185;27;20395;-87
2021/12/20 01:18:06;;;;;;;13.30;3.20;;;31.10;75.80;;;;;;5129849;27;20417;-86
2021/12/20 01:20:35;;;;;;;13.97;3.23;;;31.30;77.80;;;;;;5129483;27;20418;-87
2021/12/20 01:23:02;;;;;;;13.27;3.38;;;31.50;75.40;;;;;;5129545;27;20414;-86
2021/12/20 01:25:29;;;;;;;8.60;2.83;;;31.60;73.10;;;;;;5129638;27;20460;-86
2021/12/20 01:27:57;;;;;;;11.52;2.92;;;31.30;71.40;;;;;;5129256;27;20373;-86
2021/12/20 01:30:27;;;;;;;10.13;2.90;;;31.00;76.40;;;;;;5129375;27;20445;-86
2021/12/20 01:32:54;;;;;;;12.43;3.20;;;31.60;75.50;;;;;;5129174;27;20446;-86
2021/12/20 01:35:23;;;;;;;10.05;3.00;;;32.40;71.50;;;;;;5129082;27;20888;-86
2021/12/20 01:37:51;;;;;;;11.13;2.88;;;32.60;69.90;;;;;;5129809;27;20381;-86
2021/12/20 01:40:18;;;;;;;10.37;2.97;;;32.40;72.30;;;;;;5129203;27;20391;-86
2021/12/20 01:42:46;;;;;;;12.10;3.10;;;32.50;72.10;;;;;;5129161;27;20364;-87
2021/12/20 01:45:20;;;;;;;10.93;3.00;;;32.50;71.30;;;;;;5129151;27;20409;-87
2021/12/20 01:47:51;;;;;;;10.07;3.03;;;33.30;68.10;;;;;;5129064;27;20372;-86
2021/12/20 01:50:45;;;;;;;9.73;2.70;;;34.00;63.50;;;;;;5128844;27;20368;-85
2021/12/20 01:53:14;;;;;;;11.32;2.95;;;34.10;63.60;;;;;;5128605;27;20409;-86
2021/12/20 01:55:41;;;;;;;11.15;2.85;;;33.30;65.80;;;;;;5129107;27;20365;-87
2021/12/20 01:58:08;;;;;;;8.10;2.78;;;33.70;65.70;;;;;;5128925;27;20369;-87
2021/12/20 02:00:37;;;;;;;8.52;2.72;;;34.20;63.50;;;;;;5128790;27;20388;-87
2021/12/20 02:03:04;;;;;;;9.35;2.67;;;34.20;63.00;;;;;;5129077;27;20405;-87
2021/12/20 02:05:58;;;;;;;9.38;2.60;;;34.50;60.70;;;;;;5128801;27;20405;-87
2021/12/20 02:08:24;;;;;;;10.93;2.78;;;33.40;61.10;;;;;;5131689;27;20381;-88
2021/12/20 02:10:56;;;;;;;7.23;2.40;;;32.90;64.50;;;;;;5128709;27;20453;-88
2021/12/20 02:13:28;;;;;;;9.50;2.58;;;33.20;65.40;;;;;;5128614;27;20824;-88
2021/12/20 02:15:56;;;;;;;8.93;2.50;;;33.70;62.80;;;;;;5128550;27;20452;-88
2021/12/20 02:18:23;;;;;;;8.60;2.43;;;34.60;62.00;;;;;;5128439;27;20364;-87
2021/12/20 02:20:51;;;;;;;9.17;2.50;;;35.50;60.20;;;;;;5128358;27;20381;-87
2021/12/20 02:23:18;;;;;;;9.23;2.70;;;35.60;57.00;;;;;;5128393;27;20866;-87
2021/12/20 02:25:45;;;;;;;9.40;2.80;;;36.00;57.90;;;;;;5128461;27;20467;-87
2021/12/20 02:28:14;;;;;;;7.90;2.33;;;36.00;57.10;;;;;;5127710;27;20377;-87
2021/12/20 02:39:03;;;;;;;7.60;2.20;;;36.70;55.10;;;;;;5110156;28;20376;-87
2021/12/20 02:41:32;;;;;;;8.27;2.28;;;37.10;53.80;;;;;;5127496;27;20383;-88
2021/12/20 02:44:06;;;;;;;7.78;2.20;;;37.50;53.10;;;;;;5132024;27;20923;-86
2021/12/20 02:49:10;;;;;;;7.93;2.30;;;38.30;51.20;;;;;;5132769;27;20365;-89
2021/12/20 02:51:38;;;;;;;6.85;2.30;;;37.90;51.90;;;;;;5126366;27;20369;-84
2021/12/20 02:54:08;;;;;;;8.37;2.13;;;37.90;52.00;;;;;;5127917;27;20887;-90
2021/12/20 02:56:35;;;;;;;7.20;2.15;;;38.60;49.20;;;;;;5127978;27;20920;-87
2021/12/20 02:59:04;;;;;;;6.20;2.00;;;39.20;50.40;;;;;;5127958;27;20809;-86
2021/12/20 03:01:32;;;;;;;5.88;2.05;;;38.70;48.30;;;;;;5127578;27;20384;-87
2021/12/20 03:04:00;;;;;;;6.30;2.22;;;37.70;49.80;;;;;;5127755;27;20373;-79
2021/12/20 03:06:38;;;;;;;6.88;2.10;;;37.10;52.50;;;;;;5127876;27;20397;-89
2021/12/20 03:09:06;;;;;;;6.38;2.13;;;36.90;53.80;;;;;;5127543;28;20407;-84
2021/12/20 03:11:35;;;;;;;6.43;2.05;;;37.80;52.20;;;;;;5125518;27;20939;-84
2021/12/20 03:14:25;;;;;;;6.32;2.05;;;38.10;50.50;;;;;;5123820;28;20432;-84
2021/12/20 03:16:52;;;;;;;6.18;2.30;;;38.20;50.70;;;;;;5125671;27;20451;-85
2021/12/20 03:19:20;;;;;;;5.55;2.00;;;38.30;50.20;;;;;;5134402;27;20816;-85
2021/12/20 03:21:47;;;;;;;7.38;2.13;;;38.50;50.70;;;;;;5127406;27;20372;-86
2021/12/20 03:24:14;;;;;;;7.13;2.10;;;38.50;49.90;;;;;;5108550;28;20971;-86
2021/12/20 03:26:41;;;;;;;6.82;2.17;;;38.50;50.40;;;;;;5109919;27;20391;-85
2021/12/20 03:29:08;;;;;;;5.53;2.03;;;38.80;51.20;;;;;;5109550;27;20829;-84
2021/12/20 03:31:35;;;;;;;5.97;2.10;;;39.20;49.10;;;;;;5131406;27;20409;-86
2021/12/20 03:34:03;;;;;;;6.97;2.10;;;39.40;49.40;;;;;;5115065;27;20397;-86
2021/12/20 03:36:30;;;;;;;6.33;2.00;;;40.30;48.20;;;;;;5132326;27;20745;-88
2021/12/20 03:38:57;;;;;;;6.32;2.17;;;41.00;48.20;;;;;;5131692;27;20389;-83
2021/12/20 03:41:24;;;;;;;11.07;2.13;;;41.00;46.00;;;;;;5132007;27;20368;-80
2021/12/20 03:43:51;;;;;;;7.27;2.00;;;40.90;46.30;;;;;;5131392;27;20381;-86
2021/12/20 03:46:18;;;;;;;7.33;2.00;;;40.60;47.10;;;;;;5132084;27;20372;-86
2021/12/20 03:48:45;;;;;;;5.97;1.90;;;40.00;45.90;;;;;;5131451;27;20438;-87
2021/12/20 03:51:12;;;;;;;7.10;2.00;;;38.50;49.30;;;;;;5130217;27;20384;-88
2021/12/20 03:53:39;;;;;;;6.07;2.17;;;36.20;52.60;;;;;;5130326;27;20452;-87
2021/12/20 03:56:07;;;;;;;7.43;2.05;;;36.20;53.70;;;;;;5112620;27;20385;-85
2021/12/20 03:58:35;;;;;;;5.90;1.90;;;36.90;54.40;;;;;;5131145;27;20380;-86
2021/12/20 04:01:05;;;;;;;4.95;1.90;;;37.70;51.90;;;;;;5131044;27;20369;-85
2021/12/20 04:03:34;;;;;;;7.93;2.00;;;38.70;50.20;;;;;;5131141;27;20886;-85
2021/12/20 04:06:08;;;;;;;6.55;1.90;;;39.00;50.40;;;;;;5131188;27;20736;-86
2021/12/20 04:08:36;;;;;;;5.03;1.90;;;39.30;50.10;;;;;;5130814;27;20377;-83
2021/12/20 04:11:04;;;;;;;6.70;1.80;;;39.00;49.80;;;;;;5131043;27;20372;-85
2021/12/20 04:13:36;;;;;;;5.88;1.60;;;38.10;51.20;;;;;;5130643;27;20491;-93
2021/12/20 04:16:03;;;;;;;4.57;1.70;;;38.60;49.90;;;;;;5112620;27;20380;-91
2021/12/20 04:18:32;;;;;;;5.35;1.77;;;38.50;49.50;;;;;;5112462;27;20381;-87
2021/12/20 04:20:59;;;;;;;4.53;1.80;;;38.30;49.90;;;;;;5130727;27;20453;-86
2021/12/20 04:23:26;;;;;;;5.63;1.90;;;38.10;50.20;;;;;;5130644;27;20383;-86
2021/12/20 04:25:53;;;;;;;5.03;1.90;;;37.90;51.50;;;;;;5130679;27;20414;-89
2021/12/20 04:28:20;;;;;;;4.68;1.63;;;37.70;51.00;;;;;;5130240;27;20758;-88
2021/12/20 04:30:47;;;;;;;6.78;1.55;;;37.90;51.30;;;;;;5130588;27;20860;-87
2021/12/20 04:33:14;;;;;;;4.55;1.70;;;37.80;51.80;;;;;;5130570;27;20749;-86
2021/12/20 04:35:41;;;;;;;6.82;1.60;;;38.00;50.30;;;;;;5130452;27;20917;-86
2021/12/20 04:38:09;;;;;;;3.08;1.50;;;38.10;51.30;;;;;;5130676;27;20369;-85
2021/12/20 04:40:37;;;;;;;3.60;1.55;;;39.00;49.40;;;;;;5130544;27;20400;-84
2021/12/20 04:43:04;;;;;;;4.63;1.40;;;40.20;47.70;;;;;;5130064;27;20392;-86
2021/12/20 04:45:33;;;;;;;5.45;1.55;;;41.00;46.30;;;;;;5111725;27;20379;-88
2021/12/20 04:48:00;;;;;;;6.00;1.50;;;41.80;44.20;;;;;;5129854;27;20484;-84
2021/12/20 04:50:28;;;;;;;4.55;1.60;;;41.80;44.60;;;;;;5130123;27;20369;-87
2021/12/20 04:52:56;;;;;;;6.20;1.55;;;41.20;44.30;;;;;;5111535;27;20401;-88
2021/12/20 04:55:24;;;;;;;5.40;1.50;;;40.80;45.00;;;;;;5129735;27;20381;-87
2021/12/20 04:57:52;;;;;;;3.80;1.42;;;40.80;46.70;;;;;;5130126;27;20397;-86
2021/12/20 05:00:22;;;;;;;4.68;1.50;;;41.20;46.00;;;;;;5129209;27;20850;-86
2021/12/20 05:02:49;;;;;;;5.82;1.40;;;41.40;44.80;;;;;;5131216;27;20406;-85
2021/12/20 05:05:18;;;;;;;4.80;1.60;;;41.40;45.50;;;;;;5134229;27;20361;-88
2021/12/20 05:07:46;;;;;;;6.55;1.50;;;42.00;45.10;;;;;;5133029;27;20378;-84
2021/12/20 05:10:25;;;;;;;3.50;1.60;;;41.90;45.50;;;;;;5130485;27;20357;-87
2021/12/20 05:12:54;;;;;;;5.65;1.45;;;41.90;43.60;;;;;;5129926;27;20388;-87
2021/12/20 05:15:22;;;;;;;4.28;1.60;;;40.90;45.60;;;;;;5128725;27;20384;-87
2021/12/20 05:17:50;;;;;;;4.55;1.48;;;39.20;46.80;;;;;;5129740;27;20375;-86
2021/12/20 05:20:17;;;;;;;5.50;1.63;;;39.00;48.20;;;;;;5129063;27;21232;-86
2021/12/20 05:22:44;;;;;;;4.70;1.60;;;39.10;47.00;;;;;;5129582;27;20365;-86
2021/12/20 05:25:12;;;;;;;4.37;1.60;;;39.20;46.30;;;;;;5129845;27;20365;-88
2021/12/20 05:27:39;;;;;;;4.53;1.60;;;38.60;48.90;;;;;;5129253;27;20472;-88
2021/12/20 05:30:08;;;;;;;4.65;1.60;;;39.30;47.40;;;;;;5129027;27;20377;-85
2021/12/20 05:32:36;;;;;;;5.05;1.58;;;39.70;46.10;;;;;;5129110;27;20396;-83
2021/12/20 05:35:06;;;;;;;4.45;1.55;;;39.50;46.60;;;;;;5128910;27;20397;-83
2021/12/20 05:37:34;;;;;;;6.55;1.60;;;38.00;48.00;;;;;;5128694;27;20769;-83
2021/12/20 05:40:01;;;;;;;5.68;1.75;;;37.90;49.40;;;;;;5128693;27;20389;-84
2021/12/20 05:42:28;;;;;;;5.88;1.60;;;38.40;48.20;;;;;;5110371;27;20472;-83
2021/12/20 05:44:55;;;;;;;4.55;1.70;;;38.70;49.40;;;;;;5128419;27;20428;-85
2021/12/20 05:47:22;;;;;;;5.35;1.48;;;38.90;47.60;;;;;;5128888;27;20384;-85
2021/12/20 05:49:50;;;;;;;4.88;1.50;;;39.10;47.50;;;;;;5128948;27;20373;-84
2021/12/20 05:52:18;;;;;;;5.60;1.60;;;38.80;47.90;;;;;;5128395;27;20472;-84
2021/12/20 05:54:45;;;;;;;5.47;1.67;;;39.40;45.90;;;;;;5127965;27;20422;-84
2021/12/20 05:57:13;;;;;;;4.82;1.60;;;40.20;46.50;;;;;;5128426;27;20767;-86
2021/12/20 05:59:40;;;;;;;8.80;1.60;;;40.50;45.40;;;;;;5127715;27;20823;-84
2021/12/20 06:02:07;;;;;;;3.58;1.60;;;39.40;46.50;;;;;;5117133;27;20396;-84
2021/12/20 06:04:34;;;;;;;5.60;1.47;;;39.50;45.10;;;;;;5118161;27;20379;-84
2021/12/20 06:07:01;;;;;;;5.40;1.60;;;38.90;45.90;;;;;;5124662;27;20410;-85
2021/12/20 06:09:28;;;;;;;8.50;1.60;;;38.90;46.40;;;;;;5128347;27;20404;-84
2021/12/20 06:11:59;;;;;;;5.18;1.60;;;38.90;46.90;;;;;;5109077;27;20389;-84
2021/12/20 06:14:30;;;;;;;4.90;1.58;;;39.40;44.70;;;;;;5127830;27;20396;-82
2021/12/20 06:16:57;;;;;;;6.40;2.10;;;39.70;45.30;;;;;;5128394;27;20365;-83
2021/12/20 06:19:25;;;;;;;11.43;2.60;;;40.30;46.80;;;;;;5127675;27;20868;-83
2021/12/20 06:21:52;;;;;;;8.85;2.70;;;40.80;49.00;;;;;;5128234;27;20368;-83
2021/12/20 06:24:20;;;;;;;12.85;2.80;;;41.10;48.70;;;;;;5127900;27;20384;-83
2021/12/20 06:26:47;;;;;;;11.45;3.00;;;41.10;49.10;;;;;;5127885;27;20364;-84
2021/12/20 06:29:14;;;;;;;7.82;2.35;;;41.10;49.40;;;;;;5127255;27;20472;-84
2021/12/20 06:31:40;;;;;;;9.52;2.70;;;41.20;49.70;;;;;;5145481;27;20993;-84
2021/12/20 06:34:07;;;;;;;13.15;2.85;;;40.50;49.70;;;;;;5144842;27;20400;-83
2021/12/20 06:36:35;;;;;;;9.70;2.45;;;40.20;50.70;;;;;;5127677;27;20384;-84
2021/12/20 06:39:04;;;;;;;8.70;2.35;;;39.70;50.80;;;;;;5108804;27;20445;-84
2021/12/20 06:41:31;;;;;;;7.40;2.55;;;39.50;51.90;;;;;;5109312;27;20380;-84
2021/12/20 06:43:58;;;;;;;8.10;2.40;;;39.30;51.80;;;;;;5127575;27;20369;-84
2021/12/20 06:46:26;;;;;;;7.85;2.75;;;39.40;51.90;;;;;;5126750;27;20901;-86
2021/12/20 06:48:53;;;;;;;9.57;2.70;;;39.60;51.70;;;;;;5127104;27;20887;-87
2021/12/20 06:51:19;;;;;;;7.95;2.40;;;39.40;52.30;;;;;;5127534;27;21191;-85
2021/12/20 06:53:46;;;;;;;7.85;2.70;;;39.00;53.20;;;;;;5127655;27;20411;-85
2021/12/20 06:56:13;;;;;;;8.43;2.50;;;39.00;52.60;;;;;;5126675;27;20779;-86
2021/12/20 06:58:41;;;;;;;7.60;2.33;;;39.00;52.60;;;;;;5127755;27;20377;-85
2021/12/20 07:01:08;;;;;;;8.23;2.50;;;39.10;52.90;;;;;;5127410;27;20380;-84
2021/12/20 07:03:35;;;;;;;9.43;2.50;;;39.20;51.80;;;;;;5116066;27;20627;-87
2021/12/20 07:06:02;;;;;;;9.27;2.47;;;38.80;51.40;;;;;;5135655;27;20463;-83
2021/12/20 07:08:29;;;;;;;7.05;2.15;;;38.30;52.90;;;;;;5126592;27;20413;-86
2021/12/20 07:10:56;;;;;;;7.50;2.20;;;37.80;53.00;;;;;;5124947;27;20382;-85
2021/12/20 07:13:23;;;;;;;7.40;2.17;;;38.00;53.10;;;;;;5125846;27;20896;-86
2021/12/20 07:15:50;;;;;;;8.43;2.30;;;37.90;54.30;;;;;;5125813;27;20740;-85
2021/12/20 07:18:17;;;;;;;7.35;2.15;;;38.50;53.00;;;;;;5126353;27;20365;-87
2021/12/20 07:20:44;;;;;;;7.10;2.10;;;38.20;53.30;;;;;;5125953;27;20876;-84
2021/12/20 07:23:11;;;;;;;8.73;2.30;;;38.20;52.90;;;;;;5126087;27;20736;-87
2021/12/20 07:25:38;;;;;;;9.70;2.30;;;37.60;54.10;;;;;;5125316;28;20372;-84
2021/12/20 07:28:06;;;;;;;6.63;2.35;;;36.90;56.80;;;;;;5135206;27;20441;-86
2021/12/20 07:30:34;;;;;;;8.05;2.30;;;36.70;56.40;;;;;;5126158;27;20380;-84
2021/12/20 07:33:01;;;;;;;8.10;2.30;;;36.50;56.30;;;;;;5125442;27;20832;-86
2021/12/20 07:35:28;;;;;;;8.40;2.40;;;36.40;56.80;;;;;;5126955;27;20400;-84
2021/12/20 07:37:57;;;;;;;8.90;2.40;;;36.40;56.80;;;;;;5125435;27;20369;-85
2021/12/20 07:40:25;;;;;;;6.20;2.03;;;36.40;56.20;;;;;;5112348;27;20458;-85
2021/12/20 07:42:52;;;;;;;6.53;2.33;;;36.50;56.20;;;;;;5126354;27;20407;-86
2021/12/20 07:45:20;;;;;;;7.90;2.20;;;36.50;55.90;;;;;;5113673;27;20481;-85
2021/12/20 07:47:49;;;;;;;6.38;2.30;;;36.30;56.40;;;;;;5113199;28;20376;-85
2021/12/20 07:50:18;;;;;;;17.47;13.77;;;36.00;56.80;;;;;;5113406;27;20396;-84
2021/12/20 08:10:54;;;;;;;;;;;;;;;;;;;;;
2021/12/20 08:17:31;;;;;;;5.60;2.20;;;33.90;61.90;;;;;;4932882;28;20393;-86
2021/12/20 08:34:36;;;;;;;6.70;2.38;;;32.00;68.00;;;;;;4903241;29;20478;-87
2021/12/20 09:04:51;;;;;;;9.32;2.60;;;29.80;85.80;;;;;;4937277;29;20526;-84
2021/12/20 09:32:13;;;;;;;;;;;;;;;;;;;;;
2021/12/20 09:49:09;;;;;;;;;;;;;;;;;;;;;
2021/12/20 09:52:13;;;;;;;11.93;3.00;;;27.20;99.90;;;;;;5043687;28;20388;-86
2021/12/20 10:19:51;;;;;;;12.73;3.30;;;26.50;99.90;;;;;;4948979;28;20463;-86
2021/12/20 10:22:43;;;;;;;12.82;3.08;;;26.40;99.90;;;;;;4940641;29;20453;-86
2021/12/20 10:25:44;;;;;;;12.50;3.20;;;26.40;99.90;;;;;;4945754;29;20462;-85
2021/12/20 10:28:51;;;;;;;15.02;3.50;;;26.40;99.90;;;;;;4990163;28;20391;-86
2021/12/20 10:31:45;;;;;;;14.70;3.08;;;26.20;99.90;;;;;;4989033;28;20376;-86
2021/12/20 10:38:57;;;;;;;;;;;;;;;;;;;;;
2021/12/20 10:42:17;;;;;;;17.33;3.40;;;26.10;99.90;;;;;;4987734;28;20785;-86
2021/12/20 10:45:13;;;;;;;14.70;3.30;;;26.20;99.90;;;;;;5006137;28;20426;-88
2021/12/20 10:49:11;;;;;;;12.88;3.33;;;26.20;99.90;;;;;;5018534;28;20376;-87
2021/12/20 10:52:33;;;;;;;11.93;3.20;;;26.20;99.90;;;;;;4998259;28;20397;-87
2021/12/20 10:58:40;;;;;;;11.40;3.30;;;26.00;99.90;;;;;;4947873;28;20516;-85
2021/12/20 11:11:10;;;;;;;13.38;3.10;;;25.70;99.90;;;;;;5000968;28;20435;-85
2021/12/20 11:13:40;;;;;;;11.40;3.30;;;25.60;99.90;;;;;;5107667;28;20457;-85
2021/12/20 11:16:45;;;;;;;12.25;3.00;;;25.60;99.90;;;;;;5086326;28;20414;-85
2021/12/20 11:19:18;;;;;;;11.57;3.00;;;25.50;99.90;;;;;;5085815;28;20736;-85
2021/12/20 11:21:50;;;;;;;11.98;3.17;;;25.50;99.90;;;;;;5082595;28;20424;-84
2021/12/20 11:24:20;;;;;;;11.77;3.38;;;25.40;99.90;;;;;;5105225;28;20386;-84
2021/12/20 11:26:48;;;;;;;12.27;3.15;;;25.40;99.90;;;;;;5109497;28;20387;-84
2021/12/20 11:29:16;;;;;;;10.20;3.20;;;25.40;99.90;;;;;;5121650;27;21077;-85
2021/12/20 11:31:45;;;;;;;14.40;3.30;;;25.40;99.90;;;;;;5106450;28;20390;-89
2021/12/20 11:34:12;;;;;;;12.05;3.60;;;25.30;99.90;;;;;;5111364;28;20833;-85
2021/12/20 11:36:39;;;;;;;12.63;3.40;;;25.30;99.90;;;;;;5118750;28;20397;-86
2021/12/20 11:39:08;;;;;;;11.03;3.33;;;25.20;99.90;;;;;;5073011;28;20403;-86
2021/12/20 11:41:35;;;;;;;11.02;3.20;;;25.20;99.90;;;;;;5106252;28;20508;-85
2021/12/20 11:44:05;;;;;;;11.48;3.20;;;25.10;99.90;;;;;;5106379;28;20784;-86
2021/12/20 11:46:50;;;;;;;14.48;3.58;;;25.10;99.90;;;;;;5106192;28;20381;-86
2021/12/20 11:49:22;;;;;;;13.20;3.40;;;25.10;99.90;;;;;;5106584;28;20390;-86
2021/12/20 11:52:05;;;;;;;14.13;3.45;;;25.00;99.90;;;;;;5109544;28;20386;-86
2021/12/20 11:54:40;;;;;;;9.90;3.38;;;24.90;99.90;;;;;;5108787;27;20766;-85
2021/12/20 11:57:37;;;;;;;13.00;3.57;;;24.90;99.90;;;;;;5108601;28;20398;-85
2021/12/20 12:00:20;;;;;;;11.80;3.30;;;24.80;99.90;;;;;;5095834;28;20394;-86
2021/12/20 12:02:50;;;;;;;13.30;3.63;;;24.80;99.90;;;;;;5108582;28;20903;-85
2021/12/20 12:05:37;;;;;;;14.00;3.30;;;24.80;99.90;;;;;;5108665;28;20393;-86
2021/12/20 12:08:28;;;;;;;11.87;3.43;;;24.80;99.90;;;;;;5109682;28;20377;-85
2021/12/20 12:11:09;;;;;;;12.25;3.30;;;24.80;99.90;;;;;;5109790;28;20386;-85
2021/12/20 12:13:50;;;;;;;12.77;3.90;;;24.70;99.90;;;;;;5109913;28;20420;-84
2021/12/20 12:16:36;;;;;;;13.02;3.38;;;24.70;99.90;;;;;;5109602;28;20836;-84
2021/12/20 12:19:04;;;;;;;14.00;3.40;;;24.70;99.90;;;;;;5109446;28;20432;-85
2021/12/20 12:21:35;;;;;;;13.48;3.25;;;24.70;99.90;;;;;;5108505;28;20447;-85
2021/12/20 12:24:04;;;;;;;13.57;3.20;;;24.70;99.90;;;;;;5094863;28;20387;-85
2021/12/20 12:26:41;;;;;;;12.52;3.33;;;24.60;99.90;;;;;;5101168;28;20424;-86
2021/12/20 12:29:16;;;;;;;14.93;3.60;;;24.60;99.90;;;;;;5109159;28;20496;-87
2021/12/20 12:32:01;;;;;;;13.98;3.50;;;24.50;99.90;;;;;;5107964;28;20417;-85
2021/12/20 12:34:43;;;;;;;16.55;3.42;;;24.50;99.90;;;;;;5109203;28;20449;-85
2021/12/20 12:37:34;;;;;;;12.65;3.65;;;24.40;99.90;;;;;;5109235;28;20402;-86
2021/12/20 12:40:26;;;;;;;14.95;4.00;;;24.40;99.90;;;;;;5115053;27;20479;-86
2021/12/20 12:42:57;;;;;;;12.32;3.60;;;24.30;99.90;;;;;;5128597;27;20416;-85
2021/12/20 12:45:53;;;;;;;15.30;4.25;;;24.30;99.90;;;;;;5110057;27;20726;-85
2021/12/20 12:48:40;;;;;;;17.43;4.10;;;24.20;99.90;;;;;;5129916;27;20437;-86
2021/12/20 12:51:19;;;;;;;21.80;4.75;;;24.20;99.90;;;;;;5129177;27;20380;-85
2021/12/20 12:53:52;;;;;;;17.65;4.93;;;24.20;99.90;;;;;;5129862;27;20397;-86
2021/12/20 12:56:25;;;;;;;18.27;5.05;;;24.20;99.90;;;;;;5130312;27;20377;-86
2021/12/20 12:59:17;;;;;;;17.50;4.80;;;24.20;99.90;;;;;;5129708;27;20417;-85
2021/12/20 13:01:56;;;;;;;19.33;5.30;;;24.20;99.90;;;;;;5128594;27;20380;-86
2021/12/20 13:04:46;;;;;;;16.80;4.90;;;24.20;99.90;;;;;;5110642;27;20373;-85
2021/12/20 13:07:36;;;;;;;20.65;5.07;;;24.20;99.90;;;;;;5121580;27;20366;-85
2021/12/20 13:10:29;;;;;;;17.20;4.50;;;24.20;99.90;;;;;;5129991;27;20406;-86
2021/12/20 13:13:06;;;;;;;13.25;4.13;;;24.10;99.90;;;;;;5129929;27;20369;-85
2021/12/20 13:18:09;;;;;;;20.40;5.18;;;24.00;99.90;;;;;;5130370;27;20921;-85
2021/12/20 13:20:59;;;;;;;17.08;4.68;;;23.80;99.90;;;;;;5130259;27;20416;-86
2021/12/20 13:23:30;;;;;;;13.23;4.40;;;23.80;99.90;;;;;;5133875;27;20357;-86
2021/12/20 13:26:03;;;;;;;25.25;5.15;;;23.80;99.90;;;;;;5131312;27;20373;-85
2021/12/20 13:28:42;;;;;;;16.65;4.45;;;23.80;99.90;;;;;;5142282;27;20357;-85
2021/12/20 13:31:12;;;;;;;16.48;4.53;;;23.80;99.90;;;;;;5141028;27;20441;-85
2021/12/20 13:33:53;;;;;;;16.75;4.40;;;23.70;99.90;;;;;;5144136;27;20397;-86
2021/12/20 13:36:24;;;;;;;15.32;3.97;;;23.80;99.90;;;;;;5143882;27;20400;-85
2021/12/20 13:38:56;;;;;;;16.88;4.30;;;23.80;99.90;;;;;;5129886;27;20894;-84
2021/12/20 13:41:26;;;;;;;16.73;4.13;;;23.80;99.90;;;;;;5129398;27;20438;-84
2021/12/20 13:43:59;;;;;;;13.27;4.20;;;23.70;99.90;;;;;;5129724;27;20740;-84
2021/12/20 13:49:14;;;;;;;17.05;4.47;;;23.70;99.90;;;;;;5128681;27;20876;-84
2021/12/20 13:52:11;;;;;;;18.80;4.60;;;23.60;99.90;;;;;;5128186;27;20744;-84
2021/12/20 13:54:44;;;;;;;15.90;4.38;;;23.50;99.90;;;;;;5115628;27;20412;-84
2021/12/20 13:57:16;;;;;;;16.30;5.78;;;23.50;99.90;;;;;;5129291;27;20361;-85
2021/12/20 13:59:58;;;;;;;16.95;5.18;;;23.60;99.90;;;;;;5129383;27;20856;-84
2021/12/20 14:02:38;;;;;;;16.07;5.10;;;23.50;99.90;;;;;;5128351;27;20726;-84
2021/12/20 14:05:13;;;;;;;15.95;4.80;;;23.50;99.90;;;;;;5119636;27;20479;-85
2021/12/20 14:07:45;;;;;;;16.50;4.43;;;23.50;99.90;;;;;;5128663;27;20377;-85
2021/12/20 14:10:21;;;;;;;15.38;4.45;;;23.40;99.90;;;;;;5128387;27;20368;-85
2021/12/20 14:12:54;;;;;;;15.30;4.50;;;23.40;99.90;;;;;;5128272;27;20427;-85
2021/12/20 14:15:26;;;;;;;18.55;5.30;;;23.40;99.90;;;;;;5128162;27;20384;-85
2021/12/20 14:17:58;;;;;;;15.73;5.10;;;23.30;99.90;;;;;;5128428;27;20376;-85
2021/12/20 14:20:47;;;;;;;17.15;5.25;;;23.30;99.90;;;;;;5111063;27;21133;-85
2021/12/20 14:23:22;;;;;;;20.35;4.93;;;23.20;99.90;;;;;;5107891;28;20772;-84
2021/12/20 14:26:01;;;;;;;22.77;5.10;;;23.20;99.90;;;;;;5122728;27;20381;-84
2021/12/20 14:28:30;;;;;;;24.67;5.47;;;23.10;99.90;;;;;;5128273;27;20364;-84
2021/12/20 14:31:01;;;;;;;20.38;5.32;;;23.00;99.90;;;;;;5127608;27;20781;-84
2021/12/20 14:33:31;;;;;;;22.87;5.70;;;22.90;99.90;;;;;;5127439;27;20385;-85
2021/12/20 14:36:09;;;;;;;19.75;5.53;;;22.70;99.90;;;;;;5127868;27;20377;-85
2021/12/20 14:38:39;;;;;;;19.73;5.18;;;22.60;99.90;;;;;;5127545;27;20429;-84
2021/12/20 14:41:27;;;;;;;18.73;5.38;;;22.60;99.90;;;;;;5127995;27;20392;-84
2021/12/20 14:43:56;;;;;;;22.25;5.90;;;22.50;99.90;;;;;;5127575;27;20948;-85
2021/12/20 14:46:48;;;;;;;27.52;6.55;;;22.40;99.90;;;;;;5109104;27;20480;-85
2021/12/20 14:49:32;;;;;;;25.52;6.40;;;22.30;99.90;;;;;;5127746;27;20373;-85
2021/12/20 14:52:28;;;;;;;23.23;6.80;;;22.30;99.90;;;;;;5127730;27;20453;-85
2021/12/20 14:54:57;;;;;;;21.55;7.25;;;22.30;99.90;;;;;;5127448;27;20408;-85
2021/12/20 14:57:32;;;;;;;22.85;7.20;;;22.20;99.90;;;;;;5127718;27;20369;-85
2021/12/20 15:00:01;;;;;;;23.33;7.90;;;22.20;99.90;;;;;;5127469;27;20369;-85
2021/12/20 15:02:35;;;;;;;23.63;7.70;;;22.10;99.90;;;;;;5124842;27;20374;-84
2021/12/20 15:05:03;;;;;;;20.02;7.22;;;22.10;99.90;;;;;;5121087;27;20385;-85
2021/12/20 15:07:31;;;;;;;24.30;8.60;;;22.10;99.90;;;;;;5127762;27;20367;-85
2021/12/20 15:09:59;;;;;;;25.33;8.00;;;22.00;99.90;;;;;;5127444;27;20372;-84
2021/12/20 15:12:27;;;;;;;20.67;7.40;;;22.00;99.90;;;;;;5126956;27;20380;-85
2021/12/20 15:14:53;;;;;;;24.45;7.47;;;21.90;99.90;;;;;;5127487;27;20500;-85
2021/12/20 15:17:21;;;;;;;21.60;7.95;;;21.90;99.90;;;;;;5126311;27;20377;-85
2021/12/20 15:19:48;;;;;;;29.92;9.52;;;21.90;99.90;;;;;;5108817;28;20404;-84
2021/12/20 15:22:14;;;;;;;31.63;10.60;;;21.80;99.90;;;;;;5127258;27;20464;-84
2021/12/20 15:24:41;;;;;;;27.08;10.38;;;21.80;99.90;;;;;;5127438;27;20395;-86
2021/12/20 15:27:12;;;;;;;28.25;11.10;;;21.80;99.90;;;;;;5132087;27;20725;-85
2021/12/20 15:29:41;;;;;;;30.83;10.23;;;21.80;99.90;;;;;;5131592;27;20381;-85
2021/12/20 15:32:08;;;;;;;33.67;10.98;;;21.80;99.90;;;;;;5128311;27;20377;-85
2021/12/20 15:34:35;;;;;;;25.40;10.23;;;21.80;99.90;;;;;;5131688;27;20503;-86
2021/12/20 15:37:03;;;;;;;26.65;9.40;;;21.80;99.90;;;;;;5131409;27;20381;-85
2021/12/20 15:39:30;;;;;;;26.25;9.88;;;21.80;99.90;;;;;;5131277;27;20401;-86
2021/12/20 15:41:59;;;;;;;36.60;10.65;;;21.80;99.90;;;;;;5131129;27;20384;-85
2021/12/20 15:44:29;;;;;;;35.85;10.38;;;21.70;99.90;;;;;;5131020;27;20376;-84
2021/12/20 15:46:56;;;;;;;37.13;9.90;;;21.70;99.90;;;;;;5131252;27;20404;-85
2021/12/20 15:49:23;;;;;;;32.92;9.38;;;21.70;99.90;;;;;;5130899;27;20381;-85
2021/12/20 15:51:50;;;;;;;38.80;10.52;;;21.70;99.90;;;;;;5130526;27;20545;-84
2021/12/20 15:54:17;;;;;;;41.92;11.38;;;21.70;99.90;;;;;;5130961;27;20911;-85
2021/12/20 15:56:44;;;;;;;32.90;11.57;;;21.70;99.90;;;;;;5131244;27;20422;-85